sensor_id;sensor_type;location;lat;lon;timestamp;P1;durP1;ratioP1;P2;durP2;ratioP2
80104;SDS011;69865;47.648;19.030;2023-05-09T00:00:29;6.83;;;6.83;;
80104;SDS011;69865;47.648;19.030;2023-05-09T00:01:04;6.80;;;6.80;;
80104;SDS011;69865;47.648;19.030;2023-05-09T00:01:35;6.97;;;6.97;;
80104;SDS011;69865;47.648;19.030;2023-05-09T00:02:06;6.80;;;6.80;;
80104;SDS011;69865;47.648;19.030;2023-05-09T00:02:37;6.77;;;6.77;;
80104;SDS011;69865;47.648;19.030;2023-05-09T00:03:09;7.23;;;7.23;;
80104;SDS011;69865;47.648;19.030;2023-05-09T00:03:39;6.90;;;6.90;;
80104;SDS011;69865;47.648;19.030;2023-05-09T00:04:10;6.83;;;6.83;;
80104;SDS011;69865;47.648;19.030;2023-05-09T00:04:41;6.73;;;6.73;;
80104;SDS011;69865;47.648;19.030;2023-05-09T00:05:12;6.77;;;6.77;;
80104;SDS011;69865;47.648;19.030;2023-05-09T00:05:43;7.00;;;7.00;;
80104;SDS011;69865;47.648;19.030;2023-05-09T00:06:13;7.33;;;7.33;;
80104;SDS011;69865;47.648;19.030;2023-05-09T00:06:44;7.10;;;7.10;;
80104;SDS011;69865;47.648;19.030;2023-05-09T00:07:15;6.73;;;6.73;;
80104;SDS011;69865;47.648;19.030;2023-05-09T00:07:46;6.93;;;6.93;;
80104;SDS011;69865;47.648;19.030;2023-05-09T00:08:17;6.97;;;6.97;;
80104;SDS011;69865;47.648;19.030;2023-05-09T00:08:47;6.50;;;6.50;;
80104;SDS011;69865;47.648;19.030;2023-05-09T00:09:18;6.63;;;6.63;;
80104;SDS011;69865;47.648;19.030;2023-05-09T00:09:49;7.40;;;7.40;;
80104;SDS011;69865;47.648;19.030;2023-05-09T00:10:19;6.97;;;6.97;;
80104;SDS011;69865;47.648;19.030;2023-05-09T00:10:50;7.33;;;7.33;;
80104;SDS011;69865;47.648;19.030;2023-05-09T00:11:21;7.27;;;7.27;;
80104;SDS011;69865;47.648;19.030;2023-05-09T00:11:52;7.23;;;7.23;;
80104;SDS011;69865;47.648;19.030;2023-05-09T00:12:22;6.73;;;6.73;;
80104;SDS011;69865;47.648;19.030;2023-05-09T00:12:53;7.07;;;7.07;;
80104;SDS011;69865;47.648;19.030;2023-05-09T00:13:24;6.97;;;6.97;;
80104;SDS011;69865;47.648;19.030;2023-05-09T00:13:55;7.10;;;7.10;;
80104;SDS011;69865;47.648;19.030;2023-05-09T00:14:26;6.90;;;6.90;;
80104;SDS011;69865;47.648;19.030;2023-05-09T00:14:58;7.07;;;7.07;;
80104;SDS011;69865;47.648;19.030;2023-05-09T00:15:28;6.70;;;6.70;;
80104;SDS011;69865;47.648;19.030;2023-05-09T00:15:59;6.50;;;6.50;;
80104;SDS011;69865;47.648;19.030;2023-05-09T00:16:30;6.90;;;6.90;;
80104;SDS011;69865;47.648;19.030;2023-05-09T00:17:01;6.93;;;6.93;;
80104;SDS011;69865;47.648;19.030;2023-05-09T00:17:31;6.83;;;6.83;;
80104;SDS011;69865;47.648;19.030;2023-05-09T00:18:02;7.13;;;7.13;;
80104;SDS011;69865;47.648;19.030;2023-05-09T00:18:33;6.97;;;6.97;;
80104;SDS011;69865;47.648;19.030;2023-05-09T00:19:04;6.80;;;6.80;;
80104;SDS011;69865;47.648;19.030;2023-05-09T00:19:35;7.20;;;7.20;;
80104;SDS011;69865;47.648;19.030;2023-05-09T00:20:06;7.03;;;7.03;;
80104;SDS011;69865;47.648;19.030;2023-05-09T00:20:38;6.90;;;6.90;;
80104;SDS011;69865;47.648;19.030;2023-05-09T00:21:09;7.13;;;7.13;;
80104;SDS011;69865;47.648;19.030;2023-05-09T00:21:40;7.20;;;7.20;;
80104;SDS011;69865;47.648;19.030;2023-05-09T00:22:10;7.30;;;7.30;;
80104;SDS011;69865;47.648;19.030;2023-05-09T00:22:41;6.83;;;6.83;;
80104;SDS011;69865;47.648;19.030;2023-05-09T00:23:12;6.77;;;6.77;;
80104;SDS011;69865;47.648;19.030;2023-05-09T00:23:42;6.83;;;6.83;;
80104;SDS011;69865;47.648;19.030;2023-05-09T00:24:13;6.63;;;6.63;;
80104;SDS011;69865;47.648;19.030;2023-05-09T00:24:44;6.37;;;6.37;;
80104;SDS011;69865;47.648;19.030;2023-05-09T00:25:15;6.57;;;6.57;;
80104;SDS011;69865;47.648;19.030;2023-05-09T00:25:45;6.90;;;6.90;;
80104;SDS011;69865;47.648;19.030;2023-05-09T00:26:16;6.40;;;6.40;;
80104;SDS011;69865;47.648;19.030;2023-05-09T00:26:47;6.93;;;6.93;;
80104;SDS011;69865;47.648;19.030;2023-05-09T00:27:18;7.40;;;7.40;;
80104;SDS011;69865;47.648;19.030;2023-05-09T00:27:48;6.80;;;6.80;;
80104;SDS011;69865;47.648;19.030;2023-05-09T00:28:19;7.13;;;7.13;;
80104;SDS011;69865;47.648;19.030;2023-05-09T00:28:50;7.13;;;7.13;;
80104;SDS011;69865;47.648;19.030;2023-05-09T00:29:20;6.73;;;6.73;;
80104;SDS011;69865;47.648;19.030;2023-05-09T00:29:53;7.20;;;7.20;;
80104;SDS011;69865;47.648;19.030;2023-05-09T00:30:23;6.60;;;6.60;;
80104;SDS011;69865;47.648;19.030;2023-05-09T00:30:54;6.90;;;6.90;;
80104;SDS011;69865;47.648;19.030;2023-05-09T00:31:25;6.97;;;6.97;;
80104;SDS011;69865;47.648;19.030;2023-05-09T00:31:56;7.13;;;7.13;;
80104;SDS011;69865;47.648;19.030;2023-05-09T00:32:26;7.00;;;7.00;;
80104;SDS011;69865;47.648;19.030;2023-05-09T00:32:57;6.90;;;6.90;;
80104;SDS011;69865;47.648;19.030;2023-05-09T00:33:28;6.67;;;6.67;;
80104;SDS011;69865;47.648;19.030;2023-05-09T00:33:58;6.73;;;6.73;;
80104;SDS011;69865;47.648;19.030;2023-05-09T00:34:29;6.97;;;6.97;;
80104;SDS011;69865;47.648;19.030;2023-05-09T00:35:00;6.93;;;6.93;;
80104;SDS011;69865;47.648;19.030;2023-05-09T00:35:31;6.90;;;6.90;;
80104;SDS011;69865;47.648;19.030;2023-05-09T00:36:01;6.87;;;6.87;;
80104;SDS011;69865;47.648;19.030;2023-05-09T00:36:32;7.10;;;7.10;;
80104;SDS011;69865;47.648;19.030;2023-05-09T00:37:03;6.73;;;6.73;;
80104;SDS011;69865;47.648;19.030;2023-05-09T00:37:34;6.93;;;6.93;;
80104;SDS011;69865;47.648;19.030;2023-05-09T00:38:04;7.13;;;7.13;;
80104;SDS011;69865;47.648;19.030;2023-05-09T00:38:35;7.20;;;7.20;;
80104;SDS011;69865;47.648;19.030;2023-05-09T00:39:06;7.07;;;7.07;;
80104;SDS011;69865;47.648;19.030;2023-05-09T00:39:37;7.33;;;7.33;;
80104;SDS011;69865;47.648;19.030;2023-05-09T00:40:08;7.27;;;7.27;;
80104;SDS011;69865;47.648;19.030;2023-05-09T00:40:39;6.67;;;6.67;;
80104;SDS011;69865;47.648;19.030;2023-05-09T00:41:09;6.70;;;6.70;;
80104;SDS011;69865;47.648;19.030;2023-05-09T00:41:40;6.90;;;6.90;;
80104;SDS011;69865;47.648;19.030;2023-05-09T00:42:11;7.57;;;7.57;;
80104;SDS011;69865;47.648;19.030;2023-05-09T00:42:42;7.33;;;7.33;;
80104;SDS011;69865;47.648;19.030;2023-05-09T00:43:13;6.83;;;6.83;;
80104;SDS011;69865;47.648;19.030;2023-05-09T00:43:44;7.40;;;7.40;;
80104;SDS011;69865;47.648;19.030;2023-05-09T00:44:14;7.47;;;7.47;;
80104;SDS011;69865;47.648;19.030;2023-05-09T00:44:45;7.23;;;7.23;;
80104;SDS011;69865;47.648;19.030;2023-05-09T00:45:17;7.73;;;7.73;;
80104;SDS011;69865;47.648;19.030;2023-05-09T00:45:48;6.97;;;6.97;;
80104;SDS011;69865;47.648;19.030;2023-05-09T00:46:19;7.37;;;7.37;;
80104;SDS011;69865;47.648;19.030;2023-05-09T00:46:50;7.60;;;7.60;;
80104;SDS011;69865;47.648;19.030;2023-05-09T00:47:21;7.00;;;7.00;;
80104;SDS011;69865;47.648;19.030;2023-05-09T00:47:52;7.53;;;7.53;;
80104;SDS011;69865;47.648;19.030;2023-05-09T00:48:24;7.23;;;7.23;;
80104;SDS011;69865;47.648;19.030;2023-05-09T00:48:55;7.07;;;7.07;;
80104;SDS011;69865;47.648;19.030;2023-05-09T00:49:26;7.00;;;7.00;;
80104;SDS011;69865;47.648;19.030;2023-05-09T00:49:57;7.00;;;7.00;;
80104;SDS011;69865;47.648;19.030;2023-05-09T00:50:28;7.03;;;7.03;;
80104;SDS011;69865;47.648;19.030;2023-05-09T00:50:59;7.50;;;7.50;;
80104;SDS011;69865;47.648;19.030;2023-05-09T00:51:30;6.90;;;6.90;;
80104;SDS011;69865;47.648;19.030;2023-05-09T00:52:02;7.10;;;7.10;;
80104;SDS011;69865;47.648;19.030;2023-05-09T00:52:34;6.73;;;6.73;;
80104;SDS011;69865;47.648;19.030;2023-05-09T00:53:05;7.37;;;7.37;;
80104;SDS011;69865;47.648;19.030;2023-05-09T00:53:36;7.47;;;7.47;;
80104;SDS011;69865;47.648;19.030;2023-05-09T00:54:08;7.17;;;7.17;;
80104;SDS011;69865;47.648;19.030;2023-05-09T00:54:39;7.33;;;7.33;;
80104;SDS011;69865;47.648;19.030;2023-05-09T00:55:10;7.00;;;7.00;;
80104;SDS011;69865;47.648;19.030;2023-05-09T00:55:42;7.20;;;7.20;;
80104;SDS011;69865;47.648;19.030;2023-05-09T00:56:13;7.57;;;7.57;;
80104;SDS011;69865;47.648;19.030;2023-05-09T00:56:44;7.67;;;7.67;;
80104;SDS011;69865;47.648;19.030;2023-05-09T00:57:15;7.83;;;7.83;;
80104;SDS011;69865;47.648;19.030;2023-05-09T00:57:46;7.57;;;7.57;;
80104;SDS011;69865;47.648;19.030;2023-05-09T00:58:17;7.90;;;7.90;;
80104;SDS011;69865;47.648;19.030;2023-05-09T00:58:48;7.73;;;7.73;;
80104;SDS011;69865;47.648;19.030;2023-05-09T00:59:19;7.57;;;7.57;;
80104;SDS011;69865;47.648;19.030;2023-05-09T00:59:49;8.23;;;8.23;;
80104;SDS011;69865;47.648;19.030;2023-05-09T01:00:22;7.33;;;7.33;;
80104;SDS011;69865;47.648;19.030;2023-05-09T01:00:53;7.47;;;7.47;;
80104;SDS011;69865;47.648;19.030;2023-05-09T01:01:23;7.33;;;7.33;;
80104;SDS011;69865;47.648;19.030;2023-05-09T01:01:54;7.23;;;7.23;;
80104;SDS011;69865;47.648;19.030;2023-05-09T01:02:25;8.00;;;8.00;;
80104;SDS011;69865;47.648;19.030;2023-05-09T01:02:56;7.83;;;7.83;;
80104;SDS011;69865;47.648;19.030;2023-05-09T01:03:27;7.37;;;7.37;;
80104;SDS011;69865;47.648;19.030;2023-05-09T01:03:59;7.77;;;7.77;;
80104;SDS011;69865;47.648;19.030;2023-05-09T01:04:30;7.80;;;7.80;;
80104;SDS011;69865;47.648;19.030;2023-05-09T01:05:01;8.07;;;8.07;;
80104;SDS011;69865;47.648;19.030;2023-05-09T01:05:32;7.57;;;7.57;;
80104;SDS011;69865;47.648;19.030;2023-05-09T01:06:15;7.27;;;7.27;;
80104;SDS011;69865;47.648;19.030;2023-05-09T01:06:54;8.47;;;8.17;;
80104;SDS011;69865;47.648;19.030;2023-05-09T01:07:32;7.77;;;7.77;;
80104;SDS011;69865;47.648;19.030;2023-05-09T01:08:09;6.93;;;6.93;;
80104;SDS011;69865;47.648;19.030;2023-05-09T01:08:49;7.20;;;7.20;;
80104;SDS011;69865;47.648;19.030;2023-05-09T01:09:28;7.20;;;7.20;;
80104;SDS011;69865;47.648;19.030;2023-05-09T01:10:08;7.50;;;7.50;;
80104;SDS011;69865;47.648;19.030;2023-05-09T01:10:47;8.07;;;8.07;;
80104;SDS011;69865;47.648;19.030;2023-05-09T01:11:28;7.53;;;7.53;;
80104;SDS011;69865;47.648;19.030;2023-05-09T01:12:05;7.43;;;7.43;;
80104;SDS011;69865;47.648;19.030;2023-05-09T01:12:45;7.20;;;7.20;;
80104;SDS011;69865;47.648;19.030;2023-05-09T01:13:23;7.43;;;7.43;;
80104;SDS011;69865;47.648;19.030;2023-05-09T01:14:01;7.40;;;7.40;;
80104;SDS011;69865;47.648;19.030;2023-05-09T01:14:43;7.67;;;7.67;;
80104;SDS011;69865;47.648;19.030;2023-05-09T01:15:28;7.70;;;7.70;;
80104;SDS011;69865;47.648;19.030;2023-05-09T01:16:09;7.83;;;7.83;;
80104;SDS011;69865;47.648;19.030;2023-05-09T01:16:50;8.33;;;8.07;;
80104;SDS011;69865;47.648;19.030;2023-05-09T01:17:30;7.60;;;7.53;;
80104;SDS011;69865;47.648;19.030;2023-05-09T01:18:08;7.63;;;7.63;;
80104;SDS011;69865;47.648;19.030;2023-05-09T01:18:44;7.67;;;7.63;;
80104;SDS011;69865;47.648;19.030;2023-05-09T01:19:26;7.97;;;7.93;;
80104;SDS011;69865;47.648;19.030;2023-05-09T01:20:13;7.83;;;7.83;;
80104;SDS011;69865;47.648;19.030;2023-05-09T01:20:55;7.20;;;7.20;;
80104;SDS011;69865;47.648;19.030;2023-05-09T01:21:30;7.60;;;7.60;;
80104;SDS011;69865;47.648;19.030;2023-05-09T01:22:03;7.60;;;7.60;;
80104;SDS011;69865;47.648;19.030;2023-05-09T01:22:40;8.03;;;8.03;;
80104;SDS011;69865;47.648;19.030;2023-05-09T01:24:31;7.83;;;7.83;;
80104;SDS011;69865;47.648;19.030;2023-05-09T01:25:37;7.80;;;7.80;;
80104;SDS011;69865;47.648;19.030;2023-05-09T01:26:18;8.20;;;8.20;;
80104;SDS011;69865;47.648;19.030;2023-05-09T01:27:01;7.73;;;7.73;;
80104;SDS011;69865;47.648;19.030;2023-05-09T01:27:47;7.63;;;7.63;;
80104;SDS011;69865;47.648;19.030;2023-05-09T01:28:40;7.50;;;7.50;;
80104;SDS011;69865;47.648;19.030;2023-05-09T01:29:35;8.50;;;8.50;;
80104;SDS011;69865;47.648;19.030;2023-05-09T01:30:08;8.40;;;8.40;;
80104;SDS011;69865;47.648;19.030;2023-05-09T01:30:43;8.33;;;8.33;;
80104;SDS011;69865;47.648;19.030;2023-05-09T01:31:16;8.00;;;8.00;;
80104;SDS011;69865;47.648;19.030;2023-05-09T01:31:46;8.33;;;8.33;;
80104;SDS011;69865;47.648;19.030;2023-05-09T01:32:27;7.93;;;7.93;;
80104;SDS011;69865;47.648;19.030;2023-05-09T01:33:01;7.67;;;7.67;;
80104;SDS011;69865;47.648;19.030;2023-05-09T01:33:37;7.57;;;7.57;;
80104;SDS011;69865;47.648;19.030;2023-05-09T01:34:11;7.73;;;7.73;;
80104;SDS011;69865;47.648;19.030;2023-05-09T01:34:46;8.17;;;8.17;;
80104;SDS011;69865;47.648;19.030;2023-05-09T01:35:21;8.57;;;8.57;;
80104;SDS011;69865;47.648;19.030;2023-05-09T01:35:56;8.40;;;8.40;;
80104;SDS011;69865;47.648;19.030;2023-05-09T01:36:33;7.77;;;7.77;;
80104;SDS011;69865;47.648;19.030;2023-05-09T01:37:08;8.37;;;8.37;;
80104;SDS011;69865;47.648;19.030;2023-05-09T01:37:42;8.53;;;8.53;;
80104;SDS011;69865;47.648;19.030;2023-05-09T01:38:18;7.57;;;7.57;;
80104;SDS011;69865;47.648;19.030;2023-05-09T01:38:53;8.07;;;8.07;;
80104;SDS011;69865;47.648;19.030;2023-05-09T01:39:28;8.37;;;8.37;;
80104;SDS011;69865;47.648;19.030;2023-05-09T01:40:05;7.47;;;7.47;;
80104;SDS011;69865;47.648;19.030;2023-05-09T01:40:39;7.87;;;7.87;;
80104;SDS011;69865;47.648;19.030;2023-05-09T01:41:14;8.30;;;8.30;;
80104;SDS011;69865;47.648;19.030;2023-05-09T01:41:47;8.47;;;8.47;;
80104;SDS011;69865;47.648;19.030;2023-05-09T01:42:19;8.60;;;8.60;;
80104;SDS011;69865;47.648;19.030;2023-05-09T01:42:53;8.77;;;8.77;;
80104;SDS011;69865;47.648;19.030;2023-05-09T01:43:27;8.07;;;8.07;;
80104;SDS011;69865;47.648;19.030;2023-05-09T01:44:02;8.00;;;8.00;;
80104;SDS011;69865;47.648;19.030;2023-05-09T01:44:40;8.27;;;8.27;;
80104;SDS011;69865;47.648;19.030;2023-05-09T01:45:13;8.33;;;8.33;;
80104;SDS011;69865;47.648;19.030;2023-05-09T01:45:45;8.43;;;8.43;;
80104;SDS011;69865;47.648;19.030;2023-05-09T01:46:18;8.07;;;8.07;;
80104;SDS011;69865;47.648;19.030;2023-05-09T01:46:51;8.20;;;8.20;;
80104;SDS011;69865;47.648;19.030;2023-05-09T01:47:25;8.77;;;8.77;;
80104;SDS011;69865;47.648;19.030;2023-05-09T01:47:57;8.73;;;8.73;;
80104;SDS011;69865;47.648;19.030;2023-05-09T01:48:29;8.50;;;8.50;;
80104;SDS011;69865;47.648;19.030;2023-05-09T01:49:01;8.10;;;8.10;;
80104;SDS011;69865;47.648;19.030;2023-05-09T01:49:34;8.17;;;8.17;;
80104;SDS011;69865;47.648;19.030;2023-05-09T01:50:07;8.57;;;8.57;;
80104;SDS011;69865;47.648;19.030;2023-05-09T01:50:40;8.40;;;8.40;;
80104;SDS011;69865;47.648;19.030;2023-05-09T01:51:13;7.93;;;7.93;;
80104;SDS011;69865;47.648;19.030;2023-05-09T01:51:46;8.43;;;8.43;;
80104;SDS011;69865;47.648;19.030;2023-05-09T01:52:19;8.00;;;8.00;;
80104;SDS011;69865;47.648;19.030;2023-05-09T01:52:52;8.20;;;8.20;;
80104;SDS011;69865;47.648;19.030;2023-05-09T01:53:25;8.27;;;8.27;;
80104;SDS011;69865;47.648;19.030;2023-05-09T01:53:58;8.17;;;8.17;;
80104;SDS011;69865;47.648;19.030;2023-05-09T01:54:31;8.50;;;8.50;;
80104;SDS011;69865;47.648;19.030;2023-05-09T01:55:03;8.67;;;8.67;;
80104;SDS011;69865;47.648;19.030;2023-05-09T01:55:35;8.30;;;8.30;;
80104;SDS011;69865;47.648;19.030;2023-05-09T01:56:09;8.23;;;8.23;;
80104;SDS011;69865;47.648;19.030;2023-05-09T01:56:42;8.20;;;8.20;;
80104;SDS011;69865;47.648;19.030;2023-05-09T01:57:15;8.37;;;8.37;;
80104;SDS011;69865;47.648;19.030;2023-05-09T01:57:48;8.47;;;8.47;;
80104;SDS011;69865;47.648;19.030;2023-05-09T01:58:20;8.20;;;8.20;;
80104;SDS011;69865;47.648;19.030;2023-05-09T01:58:52;8.03;;;8.03;;
80104;SDS011;69865;47.648;19.030;2023-05-09T01:59:25;8.97;;;8.97;;
80104;SDS011;69865;47.648;19.030;2023-05-09T02:00:00;9.20;;;9.20;;
80104;SDS011;69865;47.648;19.030;2023-05-09T02:00:32;8.70;;;8.70;;
80104;SDS011;69865;47.648;19.030;2023-05-09T02:01:04;8.47;;;8.47;;
80104;SDS011;69865;47.648;19.030;2023-05-09T02:01:35;8.90;;;8.87;;
80104;SDS011;69865;47.648;19.030;2023-05-09T02:02:07;9.23;;;9.10;;
80104;SDS011;69865;47.648;19.030;2023-05-09T02:02:37;8.73;;;8.67;;
80104;SDS011;69865;47.648;19.030;2023-05-09T02:03:09;8.67;;;8.67;;
80104;SDS011;69865;47.648;19.030;2023-05-09T02:03:41;8.57;;;8.57;;
80104;SDS011;69865;47.648;19.030;2023-05-09T02:04:14;8.77;;;8.77;;
80104;SDS011;69865;47.648;19.030;2023-05-09T02:04:47;8.70;;;8.70;;
80104;SDS011;69865;47.648;19.030;2023-05-09T02:05:19;8.43;;;8.43;;
80104;SDS011;69865;47.648;19.030;2023-05-09T02:05:55;8.13;;;8.13;;
80104;SDS011;69865;47.648;19.030;2023-05-09T02:06:26;8.27;;;8.27;;
80104;SDS011;69865;47.648;19.030;2023-05-09T02:06:58;8.87;;;8.87;;
80104;SDS011;69865;47.648;19.030;2023-05-09T02:07:30;8.57;;;8.57;;
80104;SDS011;69865;47.648;19.030;2023-05-09T02:08:02;8.80;;;8.80;;
80104;SDS011;69865;47.648;19.030;2023-05-09T02:08:33;8.53;;;8.53;;
80104;SDS011;69865;47.648;19.030;2023-05-09T02:09:05;9.00;;;9.00;;
80104;SDS011;69865;47.648;19.030;2023-05-09T02:09:36;8.40;;;8.40;;
80104;SDS011;69865;47.648;19.030;2023-05-09T02:10:08;8.43;;;8.43;;
80104;SDS011;69865;47.648;19.030;2023-05-09T02:10:39;8.63;;;8.63;;
80104;SDS011;69865;47.648;19.030;2023-05-09T02:11:11;8.73;;;8.73;;
80104;SDS011;69865;47.648;19.030;2023-05-09T02:11:42;8.30;;;8.27;;
80104;SDS011;69865;47.648;19.030;2023-05-09T02:12:13;8.57;;;8.53;;
80104;SDS011;69865;47.648;19.030;2023-05-09T02:12:44;8.43;;;8.43;;
80104;SDS011;69865;47.648;19.030;2023-05-09T02:13:15;8.53;;;8.53;;
80104;SDS011;69865;47.648;19.030;2023-05-09T02:13:46;8.57;;;8.57;;
80104;SDS011;69865;47.648;19.030;2023-05-09T02:14:17;8.43;;;8.43;;
80104;SDS011;69865;47.648;19.030;2023-05-09T02:14:47;8.77;;;8.77;;
80104;SDS011;69865;47.648;19.030;2023-05-09T02:15:20;8.97;;;8.97;;
80104;SDS011;69865;47.648;19.030;2023-05-09T02:15:51;8.90;;;8.90;;
80104;SDS011;69865;47.648;19.030;2023-05-09T02:16:23;8.73;;;8.73;;
80104;SDS011;69865;47.648;19.030;2023-05-09T02:16:54;8.70;;;8.70;;
80104;SDS011;69865;47.648;19.030;2023-05-09T02:17:25;8.80;;;8.80;;
80104;SDS011;69865;47.648;19.030;2023-05-09T02:17:55;8.57;;;8.57;;
80104;SDS011;69865;47.648;19.030;2023-05-09T02:18:26;9.23;;;9.07;;
80104;SDS011;69865;47.648;19.030;2023-05-09T02:18:57;9.77;;;9.70;;
80104;SDS011;69865;47.648;19.030;2023-05-09T02:19:28;9.27;;;9.23;;
80104;SDS011;69865;47.648;19.030;2023-05-09T02:19:58;8.97;;;8.97;;
80104;SDS011;69865;47.648;19.030;2023-05-09T02:20:29;8.70;;;8.70;;
80104;SDS011;69865;47.648;19.030;2023-05-09T02:21:00;8.97;;;8.97;;
80104;SDS011;69865;47.648;19.030;2023-05-09T02:21:31;9.07;;;9.07;;
80104;SDS011;69865;47.648;19.030;2023-05-09T02:22:02;9.23;;;9.23;;
80104;SDS011;69865;47.648;19.030;2023-05-09T02:22:33;9.27;;;9.27;;
80104;SDS011;69865;47.648;19.030;2023-05-09T02:23:04;8.70;;;8.70;;
80104;SDS011;69865;47.648;19.030;2023-05-09T02:23:34;8.73;;;8.73;;
80104;SDS011;69865;47.648;19.030;2023-05-09T02:24:05;9.20;;;9.20;;
80104;SDS011;69865;47.648;19.030;2023-05-09T02:24:36;8.97;;;8.97;;
80104;SDS011;69865;47.648;19.030;2023-05-09T02:25:08;8.47;;;8.47;;
80104;SDS011;69865;47.648;19.030;2023-05-09T02:25:40;8.80;;;8.80;;
80104;SDS011;69865;47.648;19.030;2023-05-09T02:26:11;8.33;;;8.33;;
80104;SDS011;69865;47.648;19.030;2023-05-09T02:26:43;9.20;;;9.17;;
80104;SDS011;69865;47.648;19.030;2023-05-09T02:27:14;8.57;;;8.57;;
80104;SDS011;69865;47.648;19.030;2023-05-09T02:27:45;8.17;;;8.17;;
80104;SDS011;69865;47.648;19.030;2023-05-09T02:28:16;8.87;;;8.87;;
80104;SDS011;69865;47.648;19.030;2023-05-09T02:28:48;9.00;;;9.00;;
80104;SDS011;69865;47.648;19.030;2023-05-09T02:29:20;8.53;;;8.53;;
80104;SDS011;69865;47.648;19.030;2023-05-09T02:30:00;8.90;;;8.90;;
80104;SDS011;69865;47.648;19.030;2023-05-09T02:30:35;8.83;;;8.83;;
80104;SDS011;69865;47.648;19.030;2023-05-09T02:31:11;8.80;;;8.80;;
80104;SDS011;69865;47.648;19.030;2023-05-09T02:31:43;8.97;;;8.97;;
80104;SDS011;69865;47.648;19.030;2023-05-09T02:32:18;9.23;;;9.07;;
80104;SDS011;69865;47.648;19.030;2023-05-09T02:32:52;10.17;;;9.97;;
80104;SDS011;69865;47.648;19.030;2023-05-09T02:33:28;9.57;;;9.53;;
80104;SDS011;69865;47.648;19.030;2023-05-09T02:34:00;9.03;;;9.03;;
80104;SDS011;69865;47.648;19.030;2023-05-09T02:34:32;8.80;;;8.80;;
80104;SDS011;69865;47.648;19.030;2023-05-09T02:35:06;9.53;;;9.53;;
80104;SDS011;69865;47.648;19.030;2023-05-09T02:35:39;9.03;;;9.03;;
80104;SDS011;69865;47.648;19.030;2023-05-09T02:36:13;9.10;;;9.10;;
80104;SDS011;69865;47.648;19.030;2023-05-09T02:36:45;8.40;;;8.40;;
80104;SDS011;69865;47.648;19.030;2023-05-09T02:37:16;9.27;;;9.27;;
80104;SDS011;69865;47.648;19.030;2023-05-09T02:37:48;8.80;;;8.80;;
80104;SDS011;69865;47.648;19.030;2023-05-09T02:38:20;9.20;;;9.20;;
80104;SDS011;69865;47.648;19.030;2023-05-09T02:38:52;9.07;;;9.07;;
80104;SDS011;69865;47.648;19.030;2023-05-09T02:39:23;9.43;;;9.43;;
80104;SDS011;69865;47.648;19.030;2023-05-09T02:39:54;9.27;;;9.27;;
80104;SDS011;69865;47.648;19.030;2023-05-09T02:40:25;8.93;;;8.93;;
80104;SDS011;69865;47.648;19.030;2023-05-09T02:40:58;9.27;;;9.00;;
80104;SDS011;69865;47.648;19.030;2023-05-09T02:41:29;9.77;;;9.73;;
80104;SDS011;69865;47.648;19.030;2023-05-09T02:42:03;9.23;;;9.23;;
80104;SDS011;69865;47.648;19.030;2023-05-09T02:42:35;9.43;;;9.43;;
80104;SDS011;69865;47.648;19.030;2023-05-09T02:43:06;9.97;;;9.97;;
80104;SDS011;69865;47.648;19.030;2023-05-09T02:43:37;9.40;;;9.40;;
80104;SDS011;69865;47.648;19.030;2023-05-09T02:44:08;9.17;;;9.17;;
80104;SDS011;69865;47.648;19.030;2023-05-09T02:44:38;9.90;;;9.90;;
80104;SDS011;69865;47.648;19.030;2023-05-09T02:45:09;8.73;;;8.70;;
80104;SDS011;69865;47.648;19.030;2023-05-09T02:45:42;9.53;;;9.53;;
80104;SDS011;69865;47.648;19.030;2023-05-09T02:46:12;9.83;;;9.83;;
80104;SDS011;69865;47.648;19.030;2023-05-09T02:46:43;8.97;;;8.97;;
80104;SDS011;69865;47.648;19.030;2023-05-09T02:47:14;9.27;;;9.27;;
80104;SDS011;69865;47.648;19.030;2023-05-09T02:47:45;9.57;;;9.57;;
80104;SDS011;69865;47.648;19.030;2023-05-09T02:48:15;9.47;;;9.47;;
80104;SDS011;69865;47.648;19.030;2023-05-09T02:48:46;9.30;;;9.27;;
80104;SDS011;69865;47.648;19.030;2023-05-09T02:49:17;10.03;;;9.77;;
80104;SDS011;69865;47.648;19.030;2023-05-09T02:49:48;9.87;;;9.80;;
80104;SDS011;69865;47.648;19.030;2023-05-09T02:50:18;10.23;;;10.00;;
80104;SDS011;69865;47.648;19.030;2023-05-09T02:50:49;9.17;;;9.13;;
80104;SDS011;69865;47.648;19.030;2023-05-09T02:51:20;9.80;;;9.70;;
80104;SDS011;69865;47.648;19.030;2023-05-09T02:51:51;9.77;;;9.70;;
80104;SDS011;69865;47.648;19.030;2023-05-09T02:52:21;9.83;;;9.80;;
80104;SDS011;69865;47.648;19.030;2023-05-09T02:52:52;9.57;;;9.53;;
80104;SDS011;69865;47.648;19.030;2023-05-09T02:53:23;10.00;;;10.00;;
80104;SDS011;69865;47.648;19.030;2023-05-09T02:53:54;10.27;;;10.27;;
80104;SDS011;69865;47.648;19.030;2023-05-09T02:54:24;9.60;;;9.57;;
80104;SDS011;69865;47.648;19.030;2023-05-09T02:54:55;9.77;;;9.77;;
80104;SDS011;69865;47.648;19.030;2023-05-09T02:55:26;9.60;;;9.60;;
80104;SDS011;69865;47.648;19.030;2023-05-09T02:55:56;9.23;;;9.23;;
80104;SDS011;69865;47.648;19.030;2023-05-09T02:56:27;9.57;;;9.43;;
80104;SDS011;69865;47.648;19.030;2023-05-09T02:56:58;9.57;;;9.33;;
80104;SDS011;69865;47.648;19.030;2023-05-09T02:57:29;9.93;;;9.87;;
80104;SDS011;69865;47.648;19.030;2023-05-09T02:57:59;9.27;;;9.23;;
80104;SDS011;69865;47.648;19.030;2023-05-09T02:58:30;9.40;;;9.40;;
80104;SDS011;69865;47.648;19.030;2023-05-09T02:59:01;10.40;;;10.40;;
80104;SDS011;69865;47.648;19.030;2023-05-09T02:59:32;10.23;;;10.23;;
80104;SDS011;69865;47.648;19.030;2023-05-09T03:00:03;9.80;;;9.80;;
80104;SDS011;69865;47.648;19.030;2023-05-09T03:00:35;9.70;;;9.70;;
80104;SDS011;69865;47.648;19.030;2023-05-09T03:01:07;9.60;;;9.60;;
80104;SDS011;69865;47.648;19.030;2023-05-09T03:01:38;10.03;;;10.03;;
80104;SDS011;69865;47.648;19.030;2023-05-09T03:02:09;10.20;;;10.20;;
80104;SDS011;69865;47.648;19.030;2023-05-09T03:02:39;9.77;;;9.77;;
80104;SDS011;69865;47.648;19.030;2023-05-09T03:03:10;9.80;;;9.80;;
80104;SDS011;69865;47.648;19.030;2023-05-09T03:03:41;9.60;;;9.60;;
80104;SDS011;69865;47.648;19.030;2023-05-09T03:04:11;10.30;;;10.30;;
80104;SDS011;69865;47.648;19.030;2023-05-09T03:04:42;10.67;;;10.47;;
80104;SDS011;69865;47.648;19.030;2023-05-09T03:05:13;10.40;;;10.20;;
80104;SDS011;69865;47.648;19.030;2023-05-09T03:05:44;10.17;;;10.07;;
80104;SDS011;69865;47.648;19.030;2023-05-09T03:06:14;9.93;;;9.93;;
80104;SDS011;69865;47.648;19.030;2023-05-09T03:06:45;10.57;;;10.50;;
80104;SDS011;69865;47.648;19.030;2023-05-09T03:07:16;10.57;;;10.37;;
80104;SDS011;69865;47.648;19.030;2023-05-09T03:07:46;10.13;;;10.13;;
80104;SDS011;69865;47.648;19.030;2023-05-09T03:08:17;9.60;;;9.60;;
80104;SDS011;69865;47.648;19.030;2023-05-09T03:08:48;9.83;;;9.83;;
80104;SDS011;69865;47.648;19.030;2023-05-09T03:09:19;9.27;;;9.27;;
80104;SDS011;69865;47.648;19.030;2023-05-09T03:09:49;10.07;;;10.07;;
80104;SDS011;69865;47.648;19.030;2023-05-09T03:10:20;9.80;;;9.80;;
80104;SDS011;69865;47.648;19.030;2023-05-09T03:10:51;9.63;;;9.63;;
80104;SDS011;69865;47.648;19.030;2023-05-09T03:11:22;9.33;;;9.33;;
80104;SDS011;69865;47.648;19.030;2023-05-09T03:11:53;9.33;;;9.27;;
80104;SDS011;69865;47.648;19.030;2023-05-09T03:12:24;9.73;;;9.73;;
80104;SDS011;69865;47.648;19.030;2023-05-09T03:12:55;9.60;;;9.57;;
80104;SDS011;69865;47.648;19.030;2023-05-09T03:13:26;11.43;;;11.07;;
80104;SDS011;69865;47.648;19.030;2023-05-09T03:13:56;11.03;;;10.93;;
80104;SDS011;69865;47.648;19.030;2023-05-09T03:14:28;9.60;;;9.60;;